sensor_id;sensor_type;location;lat;lon;timestamp;pressure;altitude;pressure_sealevel;temperature;humidity
4123;BME280;2075;51.062;6.920;2023-03-25T00:01:28;87243.22;;;-144.48;100.00
4123;BME280;2075;51.062;6.920;2023-03-25T00:04:15;89393.09;;;-144.48;100.00
4123;BME280;2075;51.062;6.920;2023-03-25T00:07:01;88557.31;;;-144.48;100.00
4123;BME280;2075;51.062;6.920;2023-03-25T00:09:48;89222.66;;;-144.48;100.00
4123;BME280;2075;51.062;6.920;2023-03-25T00:12:33;87375.03;;;-144.48;100.00
4123;BME280;2075;51.062;6.920;2023-03-25T00:15:19;88685.09;;;-144.48;100.00
4123;BME280;2075;51.062;6.920;2023-03-25T00:18:07;86931.00;;;-144.48;100.00
4123;BME280;2075;51.062;6.920;2023-03-25T00:20:52;88782.47;;;-144.48;100.00
4123;BME280;2075;51.062;6.920;2023-03-25T00:23:38;89137.47;;;-144.48;100.00
4123;BME280;2075;51.062;6.920;2023-03-25T00:26:24;91166.72;;;-144.48;100.00
4123;BME280;2075;51.062;6.920;2023-03-25T00:29:13;92267.06;;;-144.48;100.00
4123;BME280;2075;51.062;6.920;2023-03-25T00:31:59;92677.25;;;-144.48;100.00
4123;BME280;2075;51.062;6.920;2023-03-25T00:34:46;93168.72;;;-144.48;100.00
4123;BME280;2075;51.062;6.920;2023-03-25T00:37:31;93341.34;;;-144.48;100.00
4123;BME280;2075;51.062;6.920;2023-03-25T00:40:17;93481.50;;;-144.48;100.00
4123;BME280;2075;51.062;6.920;2023-03-25T00:43:03;93719.16;;;-144.48;100.00
4123;BME280;2075;51.062;6.920;2023-03-25T00:45:53;93678.53;;;-144.48;100.00
4123;BME280;2075;51.062;6.920;2023-03-25T00:48:39;93733.38;;;-144.48;100.00
4123;BME280;2075;51.062;6.920;2023-03-25T00:51:28;93859.31;;;-144.48;100.00
4123;BME280;2075;51.062;6.920;2023-03-25T00:54:14;93985.28;;;-144.48;100.00
4123;BME280;2075;51.062;6.920;2023-03-25T00:56:59;94003.56;;;-144.48;99.50
4123;BME280;2075;51.062;6.920;2023-03-25T00:59:45;94097.00;;;-144.48;98.63
4123;BME280;2075;51.062;6.920;2023-03-25T01:02:30;94164.06;;;-144.48;98.32
4123;BME280;2075;51.062;6.920;2023-03-25T01:05:16;94192.50;;;-144.48;97.73
4123;BME280;2075;51.062;6.920;2023-03-25T01:08:05;94229.06;;;-144.48;97.05
4123;BME280;2075;51.062;6.920;2023-03-25T01:10:52;94306.28;;;-144.48;95.63
4123;BME280;2075;51.062;6.920;2023-03-25T01:13:37;94212.81;;;-144.48;96.29
4123;BME280;2075;51.062;6.920;2023-03-25T01:16:23;94267.66;;;-144.48;96.37
4123;BME280;2075;51.062;6.920;2023-03-25T01:19:08;94298.16;;;-144.48;95.97
4123;BME280;2075;51.062;6.920;2023-03-25T01:21:53;94273.75;;;-144.48;96.19
4123;BME280;2075;51.062;6.920;2023-03-25T01:24:41;94318.47;;;-144.48;95.26
4123;BME280;2075;51.062;6.920;2023-03-25T01:27:26;94338.78;;;-144.48;95.86
4123;BME280;2075;51.062;6.920;2023-03-25T01:30:13;94294.09;;;-144.48;96.23
4123;BME280;2075;51.062;6.920;2023-03-25T01:32:59;94314.41;;;-144.48;95.64
4123;BME280;2075;51.062;6.920;2023-03-25T01:35:45;94287.97;;;-144.48;95.89
4123;BME280;2075;51.062;6.920;2023-03-25T01:38:30;94281.88;;;-144.48;95.89
4123;BME280;2075;51.062;6.920;2023-03-25T01:41:17;94279.84;;;-144.48;97.03
4123;BME280;2075;51.062;6.920;2023-03-25T01:44:07;94119.34;;;-144.48;97.09
4123;BME280;2075;51.062;6.920;2023-03-25T01:46:53;94184.38;;;-144.48;97.71
4123;BME280;2075;51.062;6.920;2023-03-25T01:49:40;94257.50;;;-144.48;97.49
4123;BME280;2075;51.062;6.920;2023-03-25T01:52:27;94261.56;;;-144.48;97.58
4123;BME280;2075;51.062;6.920;2023-03-25T01:55:14;94229.06;;;-144.48;97.96
4123;BME280;2075;51.062;6.920;2023-03-25T01:58:08;94253.44;;;-144.48;98.22
4123;BME280;2075;51.062;6.920;2023-03-25T02:00:55;94216.88;;;-144.48;98.70
4123;BME280;2075;51.062;6.920;2023-03-25T02:03:41;94204.69;;;-144.48;98.50
4123;BME280;2075;51.062;6.920;2023-03-25T02:06:32;94249.38;;;-144.48;98.42
4123;BME280;2075;51.062;6.920;2023-03-25T02:09:20;94182.34;;;-144.48;98.06
4123;BME280;2075;51.062;6.920;2023-03-25T02:12:06;94200.63;;;-144.48;98.82
4123;BME280;2075;51.062;6.920;2023-03-25T02:14:53;94243.28;;;-144.48;98.29
4123;BME280;2075;51.062;6.920;2023-03-25T02:21:17;94241.25;;;-144.48;97.75
4123;BME280;2075;51.062;6.920;2023-03-25T02:24:25;94294.09;;;-144.48;98.41
4123;BME280;2075;51.062;6.920;2023-03-25T02:27:26;94225.00;;;-144.48;99.63
4123;BME280;2075;51.062;6.920;2023-03-25T02:30:31;94092.94;;;-144.48;100.00
4123;BME280;2075;51.062;6.920;2023-03-25T02:40:08;93589.16;;;-144.48;100.00
4123;BME280;2075;51.062;6.920;2023-03-25T02:43:02;93067.16;;;-144.48;100.00
4123;BME280;2075;51.062;6.920;2023-03-25T02:45:54;91865.03;;;-144.48;100.00
4123;BME280;2075;51.062;6.920;2023-03-25T02:48:49;91513.84;;;-144.48;100.00
4123;BME280;2075;51.062;6.920;2023-03-25T02:51:43;91550.38;;;-144.48;100.00
4123;BME280;2075;51.062;6.920;2023-03-25T02:54:30;92100.56;;;-144.48;100.00
4123;BME280;2075;51.062;6.920;2023-03-25T02:57:20;92254.88;;;-144.48;100.00
4123;BME280;2075;51.062;6.920;2023-03-25T03:00:09;92740.19;;;-144.48;100.00
4123;BME280;2075;51.062;6.920;2023-03-25T03:03:00;93319.00;;;-144.48;100.00
4123;BME280;2075;51.062;6.920;2023-03-25T03:05:50;93497.75;;;-144.48;100.00
4123;BME280;2075;51.062;6.920;2023-03-25T03:08:49;93601.34;;;-144.48;100.00
4123;BME280;2075;51.062;6.920;2023-03-25T03:11:47;93623.69;;;-144.48;100.00
4123;BME280;2075;51.062;6.920;2023-03-25T03:14:51;93457.13;;;-144.48;100.00
4123;BME280;2075;51.062;6.920;2023-03-25T03:17:44;93664.31;;;-144.48;100.00
4123;BME280;2075;51.062;6.920;2023-03-25T03:20:38;93757.75;;;-144.48;100.00
4123;BME280;2075;51.062;6.920;2023-03-25T03:23:27;93696.81;;;-144.48;100.00
4123;BME280;2075;51.062;6.920;2023-03-25T03:26:21;93711.03;;;-144.48;100.00
4123;BME280;2075;51.062;6.920;2023-03-25T03:29:11;93755.72;;;-144.48;100.00
4123;BME280;2075;51.062;6.920;2023-03-25T03:32:01;93826.81;;;-144.48;100.00
4123;BME280;2075;51.062;6.920;2023-03-25T03:34:51;93910.13;;;-144.48;100.00
4123;BME280;2075;51.062;6.920;2023-03-25T03:37:41;94017.78;;;-144.48;100.00
4123;BME280;2075;51.062;6.920;2023-03-25T03:40:28;93922.31;;;-144.48;100.00
4123;BME280;2075;51.062;6.920;2023-03-25T03:43:18;93997.47;;;-144.48;100.00
4123;BME280;2075;51.062;6.920;2023-03-25T03:46:13;93920.28;;;-144.48;100.00
4123;BME280;2075;51.062;6.920;2023-03-25T03:49:06;93828.84;;;-144.48;100.00
4123;BME280;2075;51.062;6.920;2023-03-25T03:51:57;93761.81;;;-144.48;100.00
4123;BME280;2075;51.062;6.920;2023-03-25T03:54:49;93788.22;;;-144.48;100.00
4123;BME280;2075;51.062;6.920;2023-03-25T03:57:40;93887.78;;;-144.48;100.00
4123;BME280;2075;51.062;6.920;2023-03-25T04:00:31;93839.00;;;-144.48;100.00
4123;BME280;2075;51.062;6.920;2023-03-25T04:03:23;93908.09;;;-144.48;100.00
4123;BME280;2075;51.062;6.920;2023-03-25T04:06:17;93912.16;;;-144.48;100.00
4123;BME280;2075;51.062;6.920;2023-03-25T04:09:09;93820.72;;;-144.48;100.00
4123;BME280;2075;51.062;6.920;2023-03-25T04:11:58;93843.06;;;-144.48;100.00
4123;BME280;2075;51.062;6.920;2023-03-25T04:14:45;93993.41;;;-144.48;100.00
4123;BME280;2075;51.062;6.920;2023-03-25T04:17:31;93916.22;;;-144.48;100.00
4123;BME280;2075;51.062;6.920;2023-03-25T04:20:20;93924.34;;;-144.48;100.00
4123;BME280;2075;51.062;6.920;2023-03-25T04:23:10;93962.94;;;-144.48;100.00
4123;BME280;2075;51.062;6.920;2023-03-25T04:25:59;93932.47;;;-144.48;100.00
4123;BME280;2075;51.062;6.920;2023-03-25T04:28:45;93958.88;;;-144.48;100.00
4123;BME280;2075;51.062;6.920;2023-03-25T04:31:31;93950.75;;;-144.48;100.00
4123;BME280;2075;51.062;6.920;2023-03-25T04:34:16;94007.63;;;-144.48;100.00
4123;BME280;2075;51.062;6.920;2023-03-25T04:37:03;94103.09;;;-144.48;100.00
4123;BME280;2075;51.062;6.920;2023-03-25T04:39:50;94094.97;;;-144.48;100.00
4123;BME280;2075;51.062;6.920;2023-03-25T04:42:36;94153.91;;;-144.48;99.71
4123;BME280;2075;51.062;6.920;2023-03-25T04:45:22;94210.78;;;-144.48;99.54
4123;BME280;2075;51.062;6.920;2023-03-25T04:48:16;94304.25;;;-144.48;98.05
4123;BME280;2075;51.062;6.920;2023-03-25T04:51:06;94269.69;;;-144.48;98.82
4123;BME280;2075;51.062;6.920;2023-03-25T04:53:53;94257.50;;;-144.48;98.39
4123;BME280;2075;51.062;6.920;2023-03-25T04:56:40;94304.25;;;-144.48;98.05
4123;BME280;2075;51.062;6.920;2023-03-25T04:59:25;94259.53;;;-144.48;98.30
4123;BME280;2075;51.062;6.920;2023-03-25T05:02:12;94318.47;;;-144.48;97.74
4123;BME280;2075;51.062;6.920;2023-03-25T05:04:57;94227.03;;;-144.48;97.76
4123;BME280;2075;51.062;6.920;2023-03-25T05:07:45;94320.50;;;-144.48;98.02
4123;BME280;2075;51.062;6.920;2023-03-25T05:10:33;94304.25;;;-144.48;97.66
4123;BME280;2075;51.062;6.920;2023-03-25T05:13:20;94334.72;;;-144.48;97.73
4123;BME280;2075;51.062;6.920;2023-03-25T05:16:06;94279.84;;;-144.48;98.26
4123;BME280;2075;51.062;6.920;2023-03-25T05:18:52;94263.59;;;-144.48;97.66
4123;BME280;2075;51.062;6.920;2023-03-25T05:21:38;94330.66;;;-144.48;97.53
4123;BME280;2075;51.062;6.920;2023-03-25T05:24:25;94338.78;;;-144.48;96.61
4123;BME280;2075;51.062;6.920;2023-03-25T05:27:11;94363.16;;;-144.48;96.62
4123;BME280;2075;51.062;6.920;2023-03-25T05:29:58;94363.16;;;-144.48;95.65
4123;BME280;2075;51.062;6.920;2023-03-25T05:32:43;94353.00;;;-144.48;95.37
4123;BME280;2075;51.062;6.920;2023-03-25T05:35:33;94379.41;;;-144.48;94.97
4123;BME280;2075;51.062;6.920;2023-03-25T05:38:19;94379.41;;;-144.48;94.39
4123;BME280;2075;51.062;6.920;2023-03-25T05:41:04;94397.69;;;-144.48;94.81
4123;BME280;2075;51.062;6.920;2023-03-25T05:43:53;94353.00;;;-144.48;94.34
4123;BME280;2075;51.062;6.920;2023-03-25T05:46:40;94399.72;;;-144.48;94.35
4123;BME280;2075;51.062;6.920;2023-03-25T05:49:25;94373.31;;;-144.48;94.92
4123;BME280;2075;51.062;6.920;2023-03-25T05:52:10;94383.47;;;-144.48;95.26
4123;BME280;2075;51.062;6.920;2023-03-25T05:54:56;94363.16;;;-144.48;94.71
4123;BME280;2075;51.062;6.920;2023-03-25T05:57:41;94411.91;;;-144.48;95.27
4123;BME280;2075;51.062;6.920;2023-03-25T06:00:27;94389.56;;;-144.48;95.16
4123;BME280;2075;51.062;6.920;2023-03-25T06:03:15;94353.00;;;-144.48;94.84
4123;BME280;2075;51.062;6.920;2023-03-25T06:06:04;94375.34;;;-144.48;94.91
4123;BME280;2075;51.062;6.920;2023-03-25T06:08:49;94373.31;;;-144.48;95.13
4123;BME280;2075;51.062;6.920;2023-03-25T06:11:35;94379.41;;;-144.48;96.34
4123;BME280;2075;51.062;6.920;2023-03-25T06:14:29;94334.72;;;-144.48;97.21
4123;BME280;2075;51.062;6.920;2023-03-25T06:17:15;94263.59;;;-144.48;99.37
4123;BME280;2075;51.062;6.920;2023-03-25T06:20:03;94027.94;;;-144.48;100.00
4123;BME280;2075;51.062;6.920;2023-03-25T06:22:54;93759.78;;;-144.48;100.00
4123;BME280;2075;51.062;6.920;2023-03-25T06:25:39;91895.50;;;-144.48;100.00
4123;BME280;2075;51.062;6.920;2023-03-25T06:28:25;85516.19;;;-144.48;100.00
4123;BME280;2075;51.062;6.920;2023-03-25T06:31:11;76467.50;;;-144.48;100.00
4123;BME280;2075;51.062;6.920;2023-03-25T06:33:56;70229.69;;;-144.48;100.00
4123;BME280;2075;51.062;6.920;2023-03-25T06:36:43;66870.13;;;-144.48;100.00
4123;BME280;2075;51.062;6.920;2023-03-25T06:39:33;59396.66;;;-144.48;100.00
4123;BME280;2075;51.062;6.920;2023-03-25T06:42:27;61714.25;;;-144.48;100.00
4123;BME280;2075;51.062;6.920;2023-03-25T06:45:28;67902.25;;;-144.48;100.00
4123;BME280;2075;51.062;6.920;2023-03-25T06:48:19;73279.53;;;-144.48;100.00
4123;BME280;2075;51.062;6.920;2023-03-25T06:51:05;75780.34;;;-144.48;100.00
4123;BME280;2075;51.062;6.920;2023-03-25T06:53:52;79073.81;;;-144.48;100.00
4123;BME280;2075;51.062;6.920;2023-03-25T06:56:37;89212.53;;;-144.48;100.00
4123;BME280;2075;51.062;6.920;2023-03-25T06:59:23;91180.91;;;-144.48;100.00
4123;BME280;2075;51.062;6.920;2023-03-25T07:02:11;91718.88;;;-144.48;100.00
4123;BME280;2075;51.062;6.920;2023-03-25T07:04:56;92620.38;;;-144.48;100.00
4123;BME280;2075;51.062;6.920;2023-03-25T07:07:42;92699.59;;;-144.48;100.00
4123;BME280;2075;51.062;6.920;2023-03-25T07:10:29;93680.56;;;-144.48;100.00
4123;BME280;2075;51.062;6.920;2023-03-25T07:13:15;93627.75;;;-144.48;100.00
4123;BME280;2075;51.062;6.920;2023-03-25T07:16:01;93944.66;;;-144.48;100.00
4123;BME280;2075;51.062;6.920;2023-03-25T07:18:46;93920.28;;;-144.48;100.00
4123;BME280;2075;51.062;6.920;2023-03-25T07:21:31;93897.94;;;-144.48;100.00
4123;BME280;2075;51.062;6.920;2023-03-25T07:24:17;94038.09;;;-144.48;98.89
4123;BME280;2075;51.062;6.920;2023-03-25T07:27:04;94094.97;;;-144.48;97.47
4123;BME280;2075;51.062;6.920;2023-03-25T07:29:51;94117.31;;;-144.48;96.54
4123;BME280;2075;51.062;6.920;2023-03-25T07:32:36;94164.06;;;-144.48;95.53
4123;BME280;2075;51.062;6.920;2023-03-25T07:35:22;94180.31;;;-144.48;94.71
4123;BME280;2075;51.062;6.920;2023-03-25T07:38:07;94139.69;;;-144.48;96.98
4123;BME280;2075;51.062;6.920;2023-03-25T07:40:53;94214.84;;;-144.48;96.01
4123;BME280;2075;51.062;6.920;2023-03-25T07:43:40;94115.28;;;-144.48;98.05
4123;BME280;2075;51.062;6.920;2023-03-25T07:46:48;93845.09;;;-144.48;98.92
4123;BME280;2075;51.062;6.920;2023-03-25T07:49:33;94182.34;;;-144.48;97.30
4123;BME280;2075;51.062;6.920;2023-03-25T07:52:18;94115.28;;;-144.48;97.61
4123;BME280;2075;51.062;6.920;2023-03-25T07:55:05;94182.34;;;-144.48;96.76
4123;BME280;2075;51.062;6.920;2023-03-25T07:57:50;94200.63;;;-144.48;96.55
4123;BME280;2075;51.062;6.920;2023-03-25T08:00:37;94178.28;;;-144.48;96.56
4123;BME280;2075;51.062;6.920;2023-03-25T08:03:23;94206.72;;;-144.48;97.32
4123;BME280;2075;51.062;6.920;2023-03-25T08:06:09;94196.56;;;-144.48;95.99
4123;BME280;2075;51.062;6.920;2023-03-25T08:08:54;94220.94;;;-144.48;95.53
4123;BME280;2075;51.062;6.920;2023-03-25T08:11:39;94204.69;;;-144.48;95.87
4123;BME280;2075;51.062;6.920;2023-03-25T08:14:25;94245.31;;;-144.48;95.24
4123;BME280;2075;51.062;6.920;2023-03-25T08:17:11;94235.16;;;-144.48;94.16
4123;BME280;2075;51.062;6.920;2023-03-25T08:19:57;94206.72;;;-144.48;92.89
4123;BME280;2075;51.062;6.920;2023-03-25T08:22:43;94251.41;;;-144.48;91.62
4123;BME280;2075;51.062;6.920;2023-03-25T08:25:29;94251.41;;;-144.48;90.58
4123;BME280;2075;51.062;6.920;2023-03-25T08:28:15;94235.16;;;-144.48;89.19
4123;BME280;2075;51.062;6.920;2023-03-25T08:31:05;94227.03;;;-144.48;86.09
4123;BME280;2075;51.062;6.920;2023-03-25T08:33:53;94239.22;;;-144.48;87.02
4123;BME280;2075;51.062;6.920;2023-03-25T08:36:39;94290.00;;;-144.48;87.00
4123;BME280;2075;51.062;6.920;2023-03-25T08:39:24;94227.03;;;-144.48;88.26
4123;BME280;2075;51.062;6.920;2023-03-25T08:42:12;94241.25;;;-144.48;87.58
4123;BME280;2075;51.062;6.920;2023-03-25T08:44:58;94265.63;;;-144.48;87.45
4123;BME280;2075;51.062;6.920;2023-03-25T08:47:43;94249.38;;;-144.48;86.06
4123;BME280;2075;51.062;6.920;2023-03-25T08:50:31;94229.06;;;-144.48;85.93
4123;BME280;2075;51.062;6.920;2023-03-25T08:53:16;94281.88;;;-144.48;85.46
4123;BME280;2075;51.062;6.920;2023-03-25T08:56:01;94290.00;;;-144.48;85.08
4123;BME280;2075;51.062;6.920;2023-03-25T08:58:47;94259.53;;;-144.48;85.07
4123;BME280;2075;51.062;6.920;2023-03-25T09:01:32;94257.50;;;-144.48;82.18
4123;BME280;2075;51.062;6.920;2023-03-25T09:04:18;94200.63;;;-144.48;80.76
4123;BME280;2075;51.062;6.920;2023-03-25T09:07:05;94216.88;;;-144.48;78.93
4123;BME280;2075;51.062;6.920;2023-03-25T09:09:53;94194.53;;;-144.48;77.99
4123;BME280;2075;51.062;6.920;2023-03-25T09:12:39;94155.94;;;-144.48;76.99
4123;BME280;2075;51.062;6.920;2023-03-25T09:15:24;94200.63;;;-144.48;75.77
4123;BME280;2075;51.062;6.920;2023-03-25T09:18:10;94192.50;;;-144.48;73.25
4123;BME280;2075;51.062;6.920;2023-03-25T09:20:57;94090.91;;;-144.48;71.64
4123;BME280;2075;51.062;6.920;2023-03-25T09:23:44;94131.56;;;-144.48;68.06
4123;BME280;2075;51.062;6.920;2023-03-25T09:26:29;94042.16;;;-144.48;66.71
4123;BME280;2075;51.062;6.920;2023-03-25T09:29:15;94005.59;;;-144.48;65.36
4123;BME280;2075;51.062;6.920;2023-03-25T09:32:00;94054.34;;;-144.48;61.77
4123;BME280;2075;51.062;6.920;2023-03-25T09:34:46;94119.34;;;-144.48;64.30
4123;BME280;2075;51.062;6.920;2023-03-25T09:37:31;94054.34;;;-144.48;66.77
4123;BME280;2075;51.062;6.920;2023-03-25T09:40:19;94011.69;;;-144.48;64.35
4123;BME280;2075;51.062;6.920;2023-03-25T09:43:21;94029.97;;;-144.48;62.20
4123;BME280;2075;51.062;6.920;2023-03-25T09:46:08;93944.66;;;-144.48;59.37
4123;BME280;2075;51.062;6.920;2023-03-25T09:48:54;94044.19;;;-144.48;60.54
4123;BME280;2075;51.062;6.920;2023-03-25T09:51:41;94007.63;;;-144.48;59.40
4123;BME280;2075;51.062;6.920;2023-03-25T09:54:30;94042.16;;;-144.48;60.96
4123;BME280;2075;51.062;6.920;2023-03-25T09:57:21;94143.75;;;-144.48;64.02
4123;BME280;2075;51.062;6.920;2023-03-25T10:00:15;94180.31;;;-144.48;65.90
4123;BME280;2075;51.062;6.920;2023-03-25T10:03:10;94094.97;;;-144.48;63.12
4123;BME280;2075;51.062;6.920;2023-03-25T10:06:12;94094.97;;;-144.48;63.82
4123;BME280;2075;51.062;6.920;2023-03-25T10:09:14;94099.03;;;-144.48;63.62
4123;BME280;2075;51.062;6.920;2023-03-25T10:12:11;94062.47;;;-144.48;62.02
4123;BME280;2075;51.062;6.920;2023-03-25T10:15:12;94025.91;;;-144.48;60.35
4123;BME280;2075;51.062;6.920;2023-03-25T10:18:17;94029.97;;;-144.48;62.06
4123;BME280;2075;51.062;6.920;2023-03-25T10:21:09;94023.88;;;-144.48;59.24
4123;BME280;2075;51.062;6.920;2023-03-25T10:24:09;94007.63;;;-144.48;60.04
4123;BME280;2075;51.062;6.920;2023-03-25T10:27:00;94070.59;;;-144.48;63.53
4123;BME280;2075;51.062;6.920;2023-03-25T10:29:49;94121.38;;;-144.48;69.59
4123;BME280;2075;51.062;6.920;2023-03-25T10:32:39;94099.03;;;-144.48;67.71
4123;BME280;2075;51.062;6.920;2023-03-25T10:35:28;94090.91;;;-144.48;64.78
4123;BME280;2075;51.062;6.920;2023-03-25T10:38:16;94111.22;;;-144.48;64.15
4123;BME280;2075;51.062;6.920;2023-03-25T10:41:11;94113.25;;;-144.48;60.59
4123;BME280;2075;51.062;6.920;2023-03-25T10:43:58;94062.47;;;-144.48;61.09
4123;BME280;2075;51.062;6.920;2023-03-25T10:46:45;94070.59;;;-144.48;61.22
4123;BME280;2075;51.062;6.920;2023-03-25T10:49:35;94097.00;;;-144.48;61.95
4123;BME280;2075;51.062;6.920;2023-03-25T10:52:21;94094.97;;;-144.48;62.50
4123;BME280;2075;51.062;6.920;2023-03-25T10:55:17;94139.69;;;-144.48;61.41
4123;BME280;2075;51.062;6.920;2023-03-25T10:58:06;94153.91;;;-144.48;63.21
4123;BME280;2075;51.062;6.920;2023-03-25T11:00:51;94141.72;;;-144.48;62.22
4123;BME280;2075;51.062;6.920;2023-03-25T11:03:38;94074.66;;;-144.48;62.97
4123;BME280;2075;51.062;6.920;2023-03-25T11:06:28;94097.00;;;-144.48;62.77
4123;BME280;2075;51.062;6.920;2023-03-25T11:09:16;94052.31;;;-144.48;60.95
4123;BME280;2075;51.062;6.920;2023-03-25T11:12:06;94115.28;;;-144.48;62.00
4123;BME280;2075;51.062;6.920;2023-03-25T11:14:53;94042.16;;;-144.48;61.35
4123;BME280;2075;51.062;6.920;2023-03-25T11:17:40;94001.53;;;-144.48;56.78
4123;BME280;2075;51.062;6.920;2023-03-25T11:20:28;94054.34;;;-144.48;57.88
4123;BME280;2075;51.062;6.920;2023-03-25T11:23:21;94025.91;;;-144.48;57.47
4123;BME280;2075;51.062;6.920;2023-03-25T11:26:12;94094.97;;;-144.48;57.38
4123;BME280;2075;51.062;6.920;2023-03-25T11:29:05;94084.81;;;-144.48;58.18
4123;BME280;2075;51.062;6.920;2023-03-25T11:31:56;94027.94;;;-144.48;58.56
4123;BME280;2075;51.062;6.920;2023-03-25T11:34:46;94019.81;;;-144.48;62.15
4123;BME280;2075;51.062;6.920;2023-03-25T11:37:43;93991.38;;;-144.48;60.22
4123;BME280;2075;51.062;6.920;2023-03-25T11:40:30;93971.06;;;-144.48;59.35
4123;BME280;2075;51.062;6.920;2023-03-25T11:43:19;93997.47;;;-144.48;58.48
4123;BME280;2075;51.062;6.920;2023-03-25T11:46:09;93991.38;;;-144.48;59.64
4123;BME280;2075;51.062;6.920;2023-03-25T11:48:56;94068.56;;;-144.48;62.04
4123;BME280;2075;51.062;6.920;2023-03-25T11:51:41;94094.97;;;-144.48;66.86
4123;BME280;2075;51.062;6.920;2023-03-25T11:54:27;94082.78;;;-144.48;69.35
4123;BME280;2075;51.062;6.920;2023-03-25T11:57:17;94070.59;;;-144.48;67.62
4123;BME280;2075;51.062;6.920;2023-03-25T12:00:25;93989.34;;;-144.48;66.58
4123;BME280;2075;51.062;6.920;2023-03-25T12:03:18;94001.53;;;-144.48;65.70
4123;BME280;2075;51.062;6.920;2023-03-25T12:06:12;93964.97;;;-144.48;64.91
4123;BME280;2075;51.062;6.920;2023-03-25T12:09:05;94025.91;;;-144.48;64.49
4123;BME280;2075;51.062;6.920;2023-03-25T12:15:15;94111.22;;;-144.48;66.31
4123;BME280;2075;51.062;6.920;2023-03-25T12:18:24;94127.50;;;-144.48;72.67
4123;BME280;2075;51.062;6.920;2023-03-25T12:21:26;94200.63;;;-144.48;73.62
4123;BME280;2075;51.062;6.920;2023-03-25T12:24:27;94176.25;;;-144.48;73.40
4123;BME280;2075;51.062;6.920;2023-03-25T12:27:27;94176.25;;;-144.48;72.81
4123;BME280;2075;51.062;6.920;2023-03-25T12:30:28;94164.06;;;-144.48;75.94
4123;BME280;2075;51.062;6.920;2023-03-25T12:33:27;94151.88;;;-144.48;74.77
4123;BME280;2075;51.062;6.920;2023-03-25T12:36:23;94131.56;;;-144.48;76.21
4123;BME280;2075;51.062;6.920;2023-03-25T12:39:22;94115.28;;;-144.48;77.38
4123;BME280;2075;51.062;6.920;2023-03-25T12:42:23;94070.59;;;-144.48;73.20
4123;BME280;2075;51.062;6.920;2023-03-25T12:45:35;94013.72;;;-144.48;68.80
4123;BME280;2075;51.062;6.920;2023-03-25T12:48:34;94247.34;;;-144.48;59.69
4123;BME280;2075;51.062;6.920;2023-03-25T12:51:34;93934.50;;;-144.48;57.81
4123;BME280;2075;51.062;6.920;2023-03-25T12:54:34;93946.69;;;-144.48;58.55
4123;BME280;2075;51.062;6.920;2023-03-25T12:57:31;93940.59;;;-144.48;56.12
4123;BME280;2075;51.062;6.920;2023-03-25T13:00:31;94021.84;;;-144.48;55.40
4123;BME280;2075;51.062;6.920;2023-03-25T13:03:43;93908.09;;;-144.48;53.90
4123;BME280;2075;51.062;6.920;2023-03-25T13:06:34;93869.47;;;-144.48;50.00
4123;BME280;2075;51.062;6.920;2023-03-25T13:09:24;93922.31;;;-144.48;48.55
4123;BME280;2075;51.062;6.920;2023-03-25T13:12:16;93989.34;;;-144.48;50.14
4123;BME280;2075;51.062;6.920;2023-03-25T13:15:14;94005.59;;;-144.48;50.61
4123;BME280;2075;51.062;6.920;2023-03-25T13:18:04;93973.09;;;-144.48;51.36
4123;BME280;2075;51.062;6.920;2023-03-25T13:20:59;94064.50;;;-144.48;52.72
4123;BME280;2075;51.062;6.920;2023-03-25T13:23:49;94090.91;;;-144.48;58.61
4123;BME280;2075;51.062;6.920;2023-03-25T13:26:39;94123.44;;;-144.48;60.13
4123;BME280;2075;51.062;6.920;2023-03-25T13:29:29;94107.16;;;-144.48;62.58
4123;BME280;2075;51.062;6.920;2023-03-25T13:32:21;94192.50;;;-144.48;70.04
4123;BME280;2075;51.062;6.920;2023-03-25T13:35:14;94251.41;;;-144.48;90.81
4123;BME280;2075;51.062;6.920;2023-03-25T13:38:02;93830.88;;;-144.48;100.00
4123;BME280;2075;51.062;6.920;2023-03-25T13:40:53;87569.69;;;-144.48;100.00
4123;BME280;2075;51.062;6.920;2023-03-25T13:43:48;59396.66;;;-144.48;100.00
4123;BME280;2075;51.062;6.920;2023-03-25T13:46:40;41424.75;;;-144.48;100.00
4123;BME280;2075;51.062;6.920;2023-03-25T13:49:31;30687.50;;;-144.48;100.00
4123;BME280;2075;51.062;6.920;2023-03-25T13:52:20;27881.03;;;-144.48;100.00
4123;BME280;2075;51.062;6.920;2023-03-25T13:55:11;21257.00;;;-144.48;100.00
4123;BME280;2075;51.062;6.920;2023-03-25T13:58:32;17695.66;;;-144.48;100.00
4123;BME280;2075;51.062;6.920;2023-03-25T14:01:43;19221.47;;;-144.48;100.00
4123;BME280;2075;51.062;6.920;2023-03-25T14:11:17;41168.72;;;-144.48;100.00
4123;BME280;2075;51.062;6.920;2023-03-25T14:14:07;50142.03;;;-144.48;100.00
4123;BME280;2075;51.062;6.920;2023-03-25T14:16:57;58881.84;;;-144.48;100.00
4123;BME280;2075;51.062;6.920;2023-03-25T14:19:48;59911.53;;;-144.48;100.00
4123;BME280;2075;51.062;6.920;2023-03-25T14:22:37;69991.63;;;-144.48;100.00
4123;BME280;2075;51.062;6.920;2023-03-25T14:25:32;88046.22;;;-144.48;100.00
4123;BME280;2075;51.062;6.920;2023-03-25T14:28:32;90024.09;;;-144.48;100.00
4123;BME280;2075;51.062;6.920;2023-03-25T14:31:28;93071.22;;;-144.48;100.00
4123;BME280;2075;51.062;6.920;2023-03-25T14:34:32;93757.75;;;-144.48;96.67
4123;BME280;2075;51.062;6.920;2023-03-25T14:37:27;93824.78;;;-144.48;94.80
4123;BME280;2075;51.062;6.920;2023-03-25T14:40:45;93849.16;;;-144.48;93.31
4123;BME280;2075;51.062;6.920;2023-03-25T14:43:32;93920.28;;;-144.48;91.85
4123;BME280;2075;51.062;6.920;2023-03-25T14:46:33;93871.50;;;-144.48;91.13
4123;BME280;2075;51.062;6.920;2023-03-25T14:49:21;93920.28;;;-144.48;91.05
4123;BME280;2075;51.062;6.920;2023-03-25T14:52:08;93985.28;;;-144.48;91.11
4123;BME280;2075;51.062;6.920;2023-03-25T14:55:00;94052.31;;;-144.48;92.23
4123;BME280;2075;51.062;6.920;2023-03-25T14:57:56;94086.84;;;-144.48;93.18
4123;BME280;2075;51.062;6.920;2023-03-25T15:00:47;93879.66;;;-144.48;91.73
4123;BME280;2075;51.062;6.920;2023-03-25T15:03:36;93993.41;;;-144.48;92.08
4123;BME280;2075;51.062;6.920;2023-03-25T15:06:29;94094.97;;;-144.48;88.55
4123;BME280;2075;51.062;6.920;2023-03-25T15:09:17;93981.22;;;-144.48;87.78
4123;BME280;2075;51.062;6.920;2023-03-25T15:12:03;94066.53;;;-144.48;85.22
4123;BME280;2075;51.062;6.920;2023-03-25T15:14:54;94029.97;;;-144.48;86.35
4123;BME280;2075;51.062;6.920;2023-03-25T15:17:45;94168.13;;;-144.48;84.32